sensor_id;sensor_type;location;lat;lon;timestamp;temperature;humidity
40023;DHT22;25713;-35.352;149.036;2023-08-06T00:02:05;12.40;80.20
40023;DHT22;25713;-35.352;149.036;2023-08-06T00:04:34;12.40;80.50
40023;DHT22;25713;-35.352;149.036;2023-08-06T00:07:04;12.40;80.20
40023;DHT22;25713;-35.352;149.036;2023-08-06T00:09:33;12.40;79.80
40023;DHT22;25713;-35.352;149.036;2023-08-06T00:12:05;12.40;79.60
40023;DHT22;25713;-35.352;149.036;2023-08-06T00:14:35;12.40;79.90
40023;DHT22;25713;-35.352;149.036;2023-08-06T00:17:04;12.40;80.00
40023;DHT22;25713;-35.352;149.036;2023-08-06T00:19:34;12.50;79.60
40023;DHT22;25713;-35.352;149.036;2023-08-06T00:22:04;12.50;79.60
40023;DHT22;25713;-35.352;149.036;2023-08-06T00:24:33;12.40;79.30
40023;DHT22;25713;-35.352;149.036;2023-08-06T00:27:05;12.50;79.40
40023;DHT22;25713;-35.352;149.036;2023-08-06T00:29:35;12.50;79.40
40023;DHT22;25713;-35.352;149.036;2023-08-06T00:32:04;12.50;79.40
40023;DHT22;25713;-35.352;149.036;2023-08-06T00:34:34;12.50;79.20
40023;DHT22;25713;-35.352;149.036;2023-08-06T00:37:05;12.50;79.20
40023;DHT22;25713;-35.352;149.036;2023-08-06T00:39:34;12.50;79.10
40023;DHT22;25713;-35.352;149.036;2023-08-06T00:42:06;12.50;79.10
40023;DHT22;25713;-35.352;149.036;2023-08-06T00:44:35;12.50;79.20
40023;DHT22;25713;-35.352;149.036;2023-08-06T00:47:05;12.50;79.30
40023;DHT22;25713;-35.352;149.036;2023-08-06T00:49:35;12.60;79.30
40023;DHT22;25713;-35.352;149.036;2023-08-06T00:52:06;12.60;79.40
40023;DHT22;25713;-35.352;149.036;2023-08-06T00:54:39;12.60;79.60
40023;DHT22;25713;-35.352;149.036;2023-08-06T00:57:11;12.60;79.40
40023;DHT22;25713;-35.352;149.036;2023-08-06T00:59:40;12.70;79.20
40023;DHT22;25713;-35.352;149.036;2023-08-06T01:02:10;12.70;79.10
40023;DHT22;25713;-35.352;149.036;2023-08-06T01:04:39;12.70;79.10
40023;DHT22;25713;-35.352;149.036;2023-08-06T01:07:21;12.70;79.20
40023;DHT22;25713;-35.352;149.036;2023-08-06T01:10:03;12.70;79.00
40023;DHT22;25713;-35.352;149.036;2023-08-06T01:12:45;12.70;79.10
40023;DHT22;25713;-35.352;149.036;2023-08-06T01:15:21;12.80;79.10
40023;DHT22;25713;-35.352;149.036;2023-08-06T01:17:54;12.80;79.30
40023;DHT22;25713;-35.352;149.036;2023-08-06T01:20:29;12.80;79.50
40023;DHT22;25713;-35.352;149.036;2023-08-06T01:23:00;12.80;79.50
40023;DHT22;25713;-35.352;149.036;2023-08-06T01:25:33;12.80;79.70
40023;DHT22;25713;-35.352;149.036;2023-08-06T01:28:09;12.80;79.80
40023;DHT22;25713;-35.352;149.036;2023-08-06T01:30:42;12.80;79.90
40023;DHT22;25713;-35.352;149.036;2023-08-06T01:33:16;12.80;79.70
40023;DHT22;25713;-35.352;149.036;2023-08-06T01:35:50;12.80;79.40
40023;DHT22;25713;-35.352;149.036;2023-08-06T01:38:20;12.90;79.40
40023;DHT22;25713;-35.352;149.036;2023-08-06T01:40:49;12.90;79.40
40023;DHT22;25713;-35.352;149.036;2023-08-06T01:43:19;12.90;80.10
40023;DHT22;25713;-35.352;149.036;2023-08-06T01:45:49;13.00;80.30
40023;DHT22;25713;-35.352;149.036;2023-08-06T01:48:18;13.00;80.30
40023;DHT22;25713;-35.352;149.036;2023-08-06T01:50:49;13.10;80.40
40023;DHT22;25713;-35.352;149.036;2023-08-06T01:53:19;13.20;80.40
40023;DHT22;25713;-35.352;149.036;2023-08-06T01:55:49;13.30;80.40
40023;DHT22;25713;-35.352;149.036;2023-08-06T01:58:19;13.40;80.50
40023;DHT22;25713;-35.352;149.036;2023-08-06T02:00:49;13.40;80.20
40023;DHT22;25713;-35.352;149.036;2023-08-06T02:03:18;13.50;80.40
40023;DHT22;25713;-35.352;149.036;2023-08-06T02:05:51;13.60;80.30
40023;DHT22;25713;-35.352;149.036;2023-08-06T02:08:21;13.60;80.10
40023;DHT22;25713;-35.352;149.036;2023-08-06T02:10:50;13.70;80.40
40023;DHT22;25713;-35.352;149.036;2023-08-06T02:13:20;13.80;80.40
40023;DHT22;25713;-35.352;149.036;2023-08-06T02:15:50;13.80;80.40
40023;DHT22;25713;-35.352;149.036;2023-08-06T02:18:19;13.80;79.70
40023;DHT22;25713;-35.352;149.036;2023-08-06T02:20:58;13.90;79.50
40023;DHT22;25713;-35.352;149.036;2023-08-06T02:23:28;13.90;80.00
40023;DHT22;25713;-35.352;149.036;2023-08-06T02:26:02;14.00;79.60
40023;DHT22;25713;-35.352;149.036;2023-08-06T02:28:32;14.00;79.20
40023;DHT22;25713;-35.352;149.036;2023-08-06T02:31:01;14.00;79.10
40023;DHT22;25713;-35.352;149.036;2023-08-06T02:33:31;14.00;79.60
40023;DHT22;25713;-35.352;149.036;2023-08-06T02:36:06;13.90;79.30
40023;DHT22;25713;-35.352;149.036;2023-08-06T02:38:35;13.90;79.20
40023;DHT22;25713;-35.352;149.036;2023-08-06T02:41:05;13.90;79.80
40023;DHT22;25713;-35.352;149.036;2023-08-06T02:43:35;13.90;80.00
40023;DHT22;25713;-35.352;149.036;2023-08-06T02:46:04;13.90;79.80
40023;DHT22;25713;-35.352;149.036;2023-08-06T02:48:33;14.00;79.90
40023;DHT22;25713;-35.352;149.036;2023-08-06T02:51:06;14.00;80.70
40023;DHT22;25713;-35.352;149.036;2023-08-06T02:53:36;14.10;80.50
40023;DHT22;25713;-35.352;149.036;2023-08-06T02:56:09;14.20;79.50
40023;DHT22;25713;-35.352;149.036;2023-08-06T02:58:59;14.20;79.00
40023;DHT22;25713;-35.352;149.036;2023-08-06T03:01:41;14.20;79.40
40023;DHT22;25713;-35.352;149.036;2023-08-06T03:04:19;14.30;79.50
40023;DHT22;25713;-35.352;149.036;2023-08-06T03:06:53;14.30;79.60
40023;DHT22;25713;-35.352;149.036;2023-08-06T03:09:26;14.30;79.50
40023;DHT22;25713;-35.352;149.036;2023-08-06T03:11:55;14.30;79.00
40023;DHT22;25713;-35.352;149.036;2023-08-06T03:14:25;14.30;79.30
40023;DHT22;25713;-35.352;149.036;2023-08-06T03:16:55;14.20;79.40
40023;DHT22;25713;-35.352;149.036;2023-08-06T03:19:24;14.20;79.70
40023;DHT22;25713;-35.352;149.036;2023-08-06T03:21:56;14.20;79.70
40023;DHT22;25713;-35.352;149.036;2023-08-06T03:24:25;14.10;79.50
40023;DHT22;25713;-35.352;149.036;2023-08-06T03:26:55;14.10;79.40
40023;DHT22;25713;-35.352;149.036;2023-08-06T03:29:26;14.10;79.90
40023;DHT22;25713;-35.352;149.036;2023-08-06T03:31:57;14.10;80.50
40023;DHT22;25713;-35.352;149.036;2023-08-06T03:34:27;14.20;80.80
40023;DHT22;25713;-35.352;149.036;2023-08-06T03:36:58;14.20;81.10
40023;DHT22;25713;-35.352;149.036;2023-08-06T03:39:29;14.30;81.20
40023;DHT22;25713;-35.352;149.036;2023-08-06T03:41:59;14.30;81.10
40023;DHT22;25713;-35.352;149.036;2023-08-06T03:44:29;14.30;80.80
40023;DHT22;25713;-35.352;149.036;2023-08-06T03:46:58;14.40;80.60
40023;DHT22;25713;-35.352;149.036;2023-08-06T03:49:28;14.40;80.90
40023;DHT22;25713;-35.352;149.036;2023-08-06T03:51:59;14.40;81.10
40023;DHT22;25713;-35.352;149.036;2023-08-06T03:54:29;14.40;81.10
40023;DHT22;25713;-35.352;149.036;2023-08-06T03:56:58;14.40;81.30
40023;DHT22;25713;-35.352;149.036;2023-08-06T03:59:28;14.30;81.10
40023;DHT22;25713;-35.352;149.036;2023-08-06T04:01:59;14.30;81.10
40023;DHT22;25713;-35.352;149.036;2023-08-06T04:04:28;14.40;81.20
40023;DHT22;25713;-35.352;149.036;2023-08-06T04:07:00;14.40;80.50
40023;DHT22;25713;-35.352;149.036;2023-08-06T04:09:30;14.40;80.90
40023;DHT22;25713;-35.352;149.036;2023-08-06T04:11:59;14.50;80.80
40023;DHT22;25713;-35.352;149.036;2023-08-06T04:14:29;14.50;80.60
40023;DHT22;25713;-35.352;149.036;2023-08-06T04:17:00;14.50;80.80
40023;DHT22;25713;-35.352;149.036;2023-08-06T04:19:29;14.50;80.70
40023;DHT22;25713;-35.352;149.036;2023-08-06T04:22:00;14.50;80.90
40023;DHT22;25713;-35.352;149.036;2023-08-06T04:24:30;14.50;81.10
40023;DHT22;25713;-35.352;149.036;2023-08-06T04:27:00;14.60;80.50
40023;DHT22;25713;-35.352;149.036;2023-08-06T04:29:30;14.60;79.80
40023;DHT22;25713;-35.352;149.036;2023-08-06T04:32:01;14.60;79.50
40023;DHT22;25713;-35.352;149.036;2023-08-06T04:34:31;14.60;79.90
40023;DHT22;25713;-35.352;149.036;2023-08-06T04:37:03;14.60;79.50
40023;DHT22;25713;-35.352;149.036;2023-08-06T04:39:32;14.60;79.20
40023;DHT22;25713;-35.352;149.036;2023-08-06T04:42:02;14.60;78.80
40023;DHT22;25713;-35.352;149.036;2023-08-06T04:44:32;14.60;78.80
40023;DHT22;25713;-35.352;149.036;2023-08-06T04:47:01;14.60;79.00
40023;DHT22;25713;-35.352;149.036;2023-08-06T04:49:31;14.60;79.30
40023;DHT22;25713;-35.352;149.036;2023-08-06T04:52:02;14.60;79.60
40023;DHT22;25713;-35.352;149.036;2023-08-06T04:54:32;14.70;79.80
40023;DHT22;25713;-35.352;149.036;2023-08-06T04:57:01;14.70;79.70
40023;DHT22;25713;-35.352;149.036;2023-08-06T04:59:30;14.70;79.80
40023;DHT22;25713;-35.352;149.036;2023-08-06T05:02:00;14.70;79.50
40023;DHT22;25713;-35.352;149.036;2023-08-06T05:04:29;14.70;80.20
40023;DHT22;25713;-35.352;149.036;2023-08-06T05:07:00;14.70;80.10
40023;DHT22;25713;-35.352;149.036;2023-08-06T05:09:30;14.70;79.20
40023;DHT22;25713;-35.352;149.036;2023-08-06T05:12:00;14.70;78.30
40023;DHT22;25713;-35.352;149.036;2023-08-06T05:14:30;14.70;79.10
40023;DHT22;25713;-35.352;149.036;2023-08-06T05:17:00;14.70;77.90
40023;DHT22;25713;-35.352;149.036;2023-08-06T05:19:29;14.70;78.00
40023;DHT22;25713;-35.352;149.036;2023-08-06T05:22:00;14.70;78.40
40023;DHT22;25713;-35.352;149.036;2023-08-06T05:24:30;14.70;78.90
40023;DHT22;25713;-35.352;149.036;2023-08-06T05:26:59;14.70;78.50
40023;DHT22;25713;-35.352;149.036;2023-08-06T05:29:28;14.70;78.20
40023;DHT22;25713;-35.352;149.036;2023-08-06T05:31:58;14.70;77.90
40023;DHT22;25713;-35.352;149.036;2023-08-06T05:34:27;14.70;77.90
40023;DHT22;25713;-35.352;149.036;2023-08-06T05:36:56;14.70;78.30
40023;DHT22;25713;-35.352;149.036;2023-08-06T05:39:28;14.70;78.40
40023;DHT22;25713;-35.352;149.036;2023-08-06T05:41:57;14.60;78.30
40023;DHT22;25713;-35.352;149.036;2023-08-06T05:44:27;14.60;77.70
40023;DHT22;25713;-35.352;149.036;2023-08-06T05:46:56;14.70;78.50
40023;DHT22;25713;-35.352;149.036;2023-08-06T05:49:25;14.60;77.90
40023;DHT22;25713;-35.352;149.036;2023-08-06T05:51:55;14.70;78.80
40023;DHT22;25713;-35.352;149.036;2023-08-06T05:54:26;14.60;78.30
40023;DHT22;25713;-35.352;149.036;2023-08-06T05:56:56;14.70;79.00
40023;DHT22;25713;-35.352;149.036;2023-08-06T05:59:25;14.70;78.50
40023;DHT22;25713;-35.352;149.036;2023-08-06T06:01:55;14.60;78.50
40023;DHT22;25713;-35.352;149.036;2023-08-06T06:04:24;14.60;78.20
40023;DHT22;25713;-35.352;149.036;2023-08-06T06:06:54;14.60;78.60
40023;DHT22;25713;-35.352;149.036;2023-08-06T06:09:23;14.60;79.10
40023;DHT22;25713;-35.352;149.036;2023-08-06T06:11:54;14.60;79.10
40023;DHT22;25713;-35.352;149.036;2023-08-06T06:14:24;14.60;79.50
40023;DHT22;25713;-35.352;149.036;2023-08-06T06:16:54;14.60;79.70
40023;DHT22;25713;-35.352;149.036;2023-08-06T06:19:23;14.60;78.80
40023;DHT22;25713;-35.352;149.036;2023-08-06T06:21:53;14.50;78.80
40023;DHT22;25713;-35.352;149.036;2023-08-06T06:24:22;14.50;79.40
40023;DHT22;25713;-35.352;149.036;2023-08-06T06:26:53;14.50;79.70
40023;DHT22;25713;-35.352;149.036;2023-08-06T06:29:23;14.50;79.40
40023;DHT22;25713;-35.352;149.036;2023-08-06T06:31:52;14.50;79.10
40023;DHT22;25713;-35.352;149.036;2023-08-06T06:34:22;14.40;79.90
40023;DHT22;25713;-35.352;149.036;2023-08-06T06:36:51;14.40;79.70
40023;DHT22;25713;-35.352;149.036;2023-08-06T06:39:22;14.40;80.30
40023;DHT22;25713;-35.352;149.036;2023-08-06T06:41:53;14.40;79.80
40023;DHT22;25713;-35.352;149.036;2023-08-06T06:44:31;14.40;80.30
40023;DHT22;25713;-35.352;149.036;2023-08-06T06:47:01;14.40;80.10
40023;DHT22;25713;-35.352;149.036;2023-08-06T06:49:30;14.40;80.50
40023;DHT22;25713;-35.352;149.036;2023-08-06T06:52:00;14.40;80.20
40023;DHT22;25713;-35.352;149.036;2023-08-06T06:54:29;14.40;80.50
40023;DHT22;25713;-35.352;149.036;2023-08-06T06:57:00;14.30;81.50
40023;DHT22;25713;-35.352;149.036;2023-08-06T06:59:30;14.40;81.20
40023;DHT22;25713;-35.352;149.036;2023-08-06T07:01:59;14.30;82.00
40023;DHT22;25713;-35.352;149.036;2023-08-06T07:04:28;14.30;82.80
40023;DHT22;25713;-35.352;149.036;2023-08-06T07:06:58;14.40;82.90
40023;DHT22;25713;-35.352;149.036;2023-08-06T07:09:27;14.30;82.10
40023;DHT22;25713;-35.352;149.036;2023-08-06T07:11:59;14.30;83.10
40023;DHT22;25713;-35.352;149.036;2023-08-06T07:14:29;14.30;83.60
40023;DHT22;25713;-35.352;149.036;2023-08-06T07:16:59;14.40;83.80
40023;DHT22;25713;-35.352;149.036;2023-08-06T07:19:29;14.40;83.30
40023;DHT22;25713;-35.352;149.036;2023-08-06T07:21:58;14.40;84.10
40023;DHT22;25713;-35.352;149.036;2023-08-06T07:24:27;14.40;83.90
40023;DHT22;25713;-35.352;149.036;2023-08-06T07:26:59;14.40;84.70
40023;DHT22;25713;-35.352;149.036;2023-08-06T07:29:28;14.40;84.60
40023;DHT22;25713;-35.352;149.036;2023-08-06T07:31:58;14.40;85.00
40023;DHT22;25713;-35.352;149.036;2023-08-06T07:34:27;14.40;85.30
40023;DHT22;25713;-35.352;149.036;2023-08-06T07:36:57;14.40;86.10
40023;DHT22;25713;-35.352;149.036;2023-08-06T07:39:27;14.30;85.60
40023;DHT22;25713;-35.352;149.036;2023-08-06T07:41:56;14.30;85.00
40023;DHT22;25713;-35.352;149.036;2023-08-06T07:44:27;14.30;84.60
40023;DHT22;25713;-35.352;149.036;2023-08-06T07:46:57;14.30;84.30
40023;DHT22;25713;-35.352;149.036;2023-08-06T07:49:27;14.30;84.90
40023;DHT22;25713;-35.352;149.036;2023-08-06T07:51:56;14.30;84.50
40023;DHT22;25713;-35.352;149.036;2023-08-06T07:54:26;14.30;84.90
40023;DHT22;25713;-35.352;149.036;2023-08-06T07:56:55;14.30;85.60
40023;DHT22;25713;-35.352;149.036;2023-08-06T07:59:26;14.30;86.10
40023;DHT22;25713;-35.352;149.036;2023-08-06T08:01:56;14.30;86.60
40023;DHT22;25713;-35.352;149.036;2023-08-06T08:04:25;14.30;86.00
40023;DHT22;25713;-35.352;149.036;2023-08-06T08:06:55;14.30;85.80
40023;DHT22;25713;-35.352;149.036;2023-08-06T08:09:24;14.30;85.30
40023;DHT22;25713;-35.352;149.036;2023-08-06T08:11:54;14.20;85.30
40023;DHT22;25713;-35.352;149.036;2023-08-06T08:14:23;14.20;85.10
40023;DHT22;25713;-35.352;149.036;2023-08-06T08:16:55;14.20;84.90
40023;DHT22;25713;-35.352;149.036;2023-08-06T08:19:24;14.20;84.80
40023;DHT22;25713;-35.352;149.036;2023-08-06T08:21:53;14.20;84.80
40023;DHT22;25713;-35.352;149.036;2023-08-06T08:24:23;14.20;85.40
40023;DHT22;25713;-35.352;149.036;2023-08-06T08:26:53;14.20;86.20
40023;DHT22;25713;-35.352;149.036;2023-08-06T08:29:22;14.20;87.10
40023;DHT22;25713;-35.352;149.036;2023-08-06T08:31:54;14.20;86.00
40023;DHT22;25713;-35.352;149.036;2023-08-06T08:34:23;14.20;86.20
40023;DHT22;25713;-35.352;149.036;2023-08-06T08:36:52;14.20;86.20
40023;DHT22;25713;-35.352;149.036;2023-08-06T08:39:22;14.20;86.40
40023;DHT22;25713;-35.352;149.036;2023-08-06T08:41:51;14.20;86.50
40023;DHT22;25713;-35.352;149.036;2023-08-06T08:44:21;14.20;86.80
40023;DHT22;25713;-35.352;149.036;2023-08-06T08:46:50;14.20;86.60
40023;DHT22;25713;-35.352;149.036;2023-08-06T08:49:22;14.10;87.10
40023;DHT22;25713;-35.352;149.036;2023-08-06T08:51:54;14.10;86.80
40023;DHT22;25713;-35.352;149.036;2023-08-06T08:54:24;14.10;87.10
40023;DHT22;25713;-35.352;149.036;2023-08-06T08:56:54;14.10;87.30
40023;DHT22;25713;-35.352;149.036;2023-08-06T08:59:23;14.10;87.70
40023;DHT22;25713;-35.352;149.036;2023-08-06T09:01:53;14.10;87.40
40023;DHT22;25713;-35.352;149.036;2023-08-06T09:04:27;14.10;86.90
40023;DHT22;25713;-35.352;149.036;2023-08-06T09:06:59;14.10;86.70
40023;DHT22;25713;-35.352;149.036;2023-08-06T09:09:31;14.10;87.10
40023;DHT22;25713;-35.352;149.036;2023-08-06T09:12:02;14.10;87.40
40023;DHT22;25713;-35.352;149.036;2023-08-06T09:14:35;14.10;87.80
40023;DHT22;25713;-35.352;149.036;2023-08-06T09:17:06;14.10;88.10
40023;DHT22;25713;-35.352;149.036;2023-08-06T09:19:39;14.10;88.30
40023;DHT22;25713;-35.352;149.036;2023-08-06T09:22:13;14.10;88.00
40023;DHT22;25713;-35.352;149.036;2023-08-06T09:24:43;14.10;87.80
40023;DHT22;25713;-35.352;149.036;2023-08-06T09:27:15;14.10;88.60
40023;DHT22;25713;-35.352;149.036;2023-08-06T09:29:46;14.10;88.50
40023;DHT22;25713;-35.352;149.036;2023-08-06T09:32:15;14.00;88.10
40023;DHT22;25713;-35.352;149.036;2023-08-06T09:34:47;14.10;89.30
40023;DHT22;25713;-35.352;149.036;2023-08-06T09:37:24;14.00;88.40
40023;DHT22;25713;-35.352;149.036;2023-08-06T09:39:54;14.00;88.80
40023;DHT22;25713;-35.352;149.036;2023-08-06T09:42:24;14.00;89.00
40023;DHT22;25713;-35.352;149.036;2023-08-06T09:44:53;14.00;89.10
40023;DHT22;25713;-35.352;149.036;2023-08-06T09:47:25;14.00;90.00
40023;DHT22;25713;-35.352;149.036;2023-08-06T09:49:58;14.00;89.40
40023;DHT22;25713;-35.352;149.036;2023-08-06T09:52:27;14.00;87.60
40023;DHT22;25713;-35.352;149.036;2023-08-06T09:54:57;13.90;87.60
40023;DHT22;25713;-35.352;149.036;2023-08-06T09:57:27;14.00;87.20
40023;DHT22;25713;-35.352;149.036;2023-08-06T09:59:56;13.90;87.00
40023;DHT22;25713;-35.352;149.036;2023-08-06T10:02:27;13.80;86.60
40023;DHT22;25713;-35.352;149.036;2023-08-06T10:05:01;13.90;87.10
40023;DHT22;25713;-35.352;149.036;2023-08-06T10:07:31;13.90;87.00
40023;DHT22;25713;-35.352;149.036;2023-08-06T10:10:02;13.90;86.90
40023;DHT22;25713;-35.352;149.036;2023-08-06T10:12:34;13.90;87.00
40023;DHT22;25713;-35.352;149.036;2023-08-06T10:15:08;13.90;87.30
40023;DHT22;25713;-35.352;149.036;2023-08-06T10:17:39;13.90;87.00
40023;DHT22;25713;-35.352;149.036;2023-08-06T10:20:13;13.90;87.40
40023;DHT22;25713;-35.352;149.036;2023-08-06T10:22:44;13.90;87.80
40023;DHT22;25713;-35.352;149.036;2023-08-06T10:25:17;13.90;87.30
40023;DHT22;25713;-35.352;149.036;2023-08-06T10:27:55;13.90;87.50
40023;DHT22;25713;-35.352;149.036;2023-08-06T10:30:25;13.90;88.00
40023;DHT22;25713;-35.352;149.036;2023-08-06T10:32:55;13.80;88.00
40023;DHT22;25713;-35.352;149.036;2023-08-06T10:35:36;13.90;87.40
40023;DHT22;25713;-35.352;149.036;2023-08-06T10:38:07;13.80;87.10
40023;DHT22;25713;-35.352;149.036;2023-08-06T10:40:39;13.80;87.00
40023;DHT22;25713;-35.352;149.036;2023-08-06T10:43:11;13.80;86.60
40023;DHT22;25713;-35.352;149.036;2023-08-06T10:45:54;13.80;86.80
40023;DHT22;25713;-35.352;149.036;2023-08-06T10:48:34;13.80;86.10
40023;DHT22;25713;-35.352;149.036;2023-08-06T10:51:10;13.80;86.00
40023;DHT22;25713;-35.352;149.036;2023-08-06T10:53:43;13.80;85.70
40023;DHT22;25713;-35.352;149.036;2023-08-06T10:56:14;13.80;85.30
40023;DHT22;25713;-35.352;149.036;2023-08-06T10:58:44;13.80;84.60
40023;DHT22;25713;-35.352;149.036;2023-08-06T11:01:14;13.70;85.10
40023;DHT22;25713;-35.352;149.036;2023-08-06T11:03:44;13.70;85.30
40023;DHT22;25713;-35.352;149.036;2023-08-06T11:06:21;13.70;84.50
40023;DHT22;25713;-35.352;149.036;2023-08-06T11:08:51;13.70;84.90
40023;DHT22;25713;-35.352;149.036;2023-08-06T11:11:22;13.70;83.90
40023;DHT22;25713;-35.352;149.036;2023-08-06T11:13:52;13.70;84.50
40023;DHT22;25713;-35.352;149.036;2023-08-06T11:16:23;13.70;83.90
40023;DHT22;25713;-35.352;149.036;2023-08-06T11:18:53;13.70;84.40
40023;DHT22;25713;-35.352;149.036;2023-08-06T11:21:24;13.70;84.10
40023;DHT22;25713;-35.352;149.036;2023-08-06T11:23:55;13.70;84.40
40023;DHT22;25713;-35.352;149.036;2023-08-06T11:26:25;13.70;84.50
40023;DHT22;25713;-35.352;149.036;2023-08-06T11:28:54;13.70;84.10
40023;DHT22;25713;-35.352;149.036;2023-08-06T11:31:24;13.70;84.80
40023;DHT22;25713;-35.352;149.036;2023-08-06T11:33:53;13.70;84.60
40023;DHT22;25713;-35.352;149.036;2023-08-06T11:36:34;13.70;84.40
40023;DHT22;25713;-35.352;149.036;2023-08-06T11:39:04;13.60;84.40
40023;DHT22;25713;-35.352;149.036;2023-08-06T11:41:34;13.70;84.40
40023;DHT22;25713;-35.352;149.036;2023-08-06T11:44:05;13.60;84.50
40023;DHT22;25713;-35.352;149.036;2023-08-06T11:46:51;13.60;84.70
40023;DHT22;25713;-35.352;149.036;2023-08-06T11:49:21;13.60;84.80
40023;DHT22;25713;-35.352;149.036;2023-08-06T11:51:54;13.60;84.90
40023;DHT22;25713;-35.352;149.036;2023-08-06T11:54:32;13.60;84.70
40023;DHT22;25713;-35.352;149.036;2023-08-06T11:57:02;13.60;84.90
40023;DHT22;25713;-35.352;149.036;2023-08-06T11:59:31;13.60;85.00
40023;DHT22;25713;-35.352;149.036;2023-08-06T12:02:02;13.60;84.80
40023;DHT22;25713;-35.352;149.036;2023-08-06T12:04:32;13.60;84.60
40023;DHT22;25713;-35.352;149.036;2023-08-06T12:07:11;13.60;84.60
40023;DHT22;25713;-35.352;149.036;2023-08-06T12:09:40;13.60;84.40
40023;DHT22;25713;-35.352;149.036;2023-08-06T12:12:10;13.60;84.40
40023;DHT22;25713;-35.352;149.036;2023-08-06T12:14:39;13.60;84.50
40023;DHT22;25713;-35.352;149.036;2023-08-06T12:17:08;13.60;84.70
40023;DHT22;25713;-35.352;149.036;2023-08-06T12:19:38;13.60;84.60
40023;DHT22;25713;-35.352;149.036;2023-08-06T12:22:09;13.60;84.30
40023;DHT22;25713;-35.352;149.036;2023-08-06T12:24:39;13.50;83.90
40023;DHT22;25713;-35.352;149.036;2023-08-06T12:27:08;13.50;84.40
40023;DHT22;25713;-35.352;149.036;2023-08-06T12:29:40;13.50;83.80
40023;DHT22;25713;-35.352;149.036;2023-08-06T12:32:10;13.50;83.60
40023;DHT22;25713;-35.352;149.036;2023-08-06T12:34:40;13.50;84.20
40023;DHT22;25713;-35.352;149.036;2023-08-06T12:37:12;13.50;84.00
40023;DHT22;25713;-35.352;149.036;2023-08-06T12:39:42;13.50;83.80
40023;DHT22;25713;-35.352;149.036;2023-08-06T12:42:11;13.50;84.20
40023;DHT22;25713;-35.352;149.036;2023-08-06T12:44:41;13.50;83.70
40023;DHT22;25713;-35.352;149.036;2023-08-06T12:47:10;13.50;83.80
40023;DHT22;25713;-35.352;149.036;2023-08-06T12:49:39;13.50;83.80
40023;DHT22;25713;-35.352;149.036;2023-08-06T12:52:11;13.40;83.50
40023;DHT22;25713;-35.352;149.036;2023-08-06T12:54:41;13.40;83.90
40023;DHT22;25713;-35.352;149.036;2023-08-06T12:57:10;13.40;83.60
40023;DHT22;25713;-35.352;149.036;2023-08-06T12:59:40;13.40;83.50
40023;DHT22;25713;-35.352;149.036;2023-08-06T13:02:09;13.40;83.20
40023;DHT22;25713;-35.352;149.036;2023-08-06T13:04:38;13.40;83.10
40023;DHT22;25713;-35.352;149.036;2023-08-06T13:07:10;13.40;82.40
40023;DHT22;25713;-35.352;149.036;2023-08-06T13:09:39;13.40;83.10
40023;DHT22;25713;-35.352;149.036;2023-08-06T13:12:09;13.30;83.00
40023;DHT22;25713;-35.352;149.036;2023-08-06T13:14:38;13.30;82.90
40023;DHT22;25713;-35.352;149.036;2023-08-06T13:17:08;13.30;82.70
40023;DHT22;25713;-35.352;149.036;2023-08-06T13:19:37;13.30;82.90
40023;DHT22;25713;-35.352;149.036;2023-08-06T13:22:07;13.30;83.00
40023;DHT22;25713;-35.352;149.036;2023-08-06T13:24:38;13.30;83.00
40023;DHT22;25713;-35.352;149.036;2023-08-06T13:27:08;13.30;82.90
40023;DHT22;25713;-35.352;149.036;2023-08-06T13:29:37;13.30;82.70
40023;DHT22;25713;-35.352;149.036;2023-08-06T13:32:07;13.30;82.30
40023;DHT22;25713;-35.352;149.036;2023-08-06T13:34:36;13.30;82.70
40023;DHT22;25713;-35.352;149.036;2023-08-06T13:37:06;13.20;82.40
40023;DHT22;25713;-35.352;149.036;2023-08-06T13:39:37;13.20;82.70
40023;DHT22;25713;-35.352;149.036;2023-08-06T13:42:07;13.30;82.30
40023;DHT22;25713;-35.352;149.036;2023-08-06T13:44:36;13.20;82.30
40023;DHT22;25713;-35.352;149.036;2023-08-06T13:47:06;13.20;82.30
40023;DHT22;25713;-35.352;149.036;2023-08-06T13:49:35;13.20;81.90
40023;DHT22;25713;-35.352;149.036;2023-08-06T13:52:05;13.20;82.30
40023;DHT22;25713;-35.352;149.036;2023-08-06T13:54:37;13.20;82.20
40023;DHT22;25713;-35.352;149.036;2023-08-06T13:57:06;13.20;82.00
40023;DHT22;25713;-35.352;149.036;2023-08-06T13:59:36;13.10;81.90
40023;DHT22;25713;-35.352;149.036;2023-08-06T14:02:05;13.20;82.10
40023;DHT22;25713;-35.352;149.036;2023-08-06T14:04:35;13.10;81.60
40023;DHT22;25713;-35.352;149.036;2023-08-06T14:07:04;13.10;81.20
40023;DHT22;25713;-35.352;149.036;2023-08-06T14:09:34;13.10;81.30
40023;DHT22;25713;-35.352;149.036;2023-08-06T14:12:06;13.10;81.60
40023;DHT22;25713;-35.352;149.036;2023-08-06T14:14:35;13.10;81.80
40023;DHT22;25713;-35.352;149.036;2023-08-06T14:17:05;13.10;81.70
40023;DHT22;25713;-35.352;149.036;2023-08-06T14:19:34;13.10;81.70
40023;DHT22;25713;-35.352;149.036;2023-08-06T14:22:04;13.00;81.40
40023;DHT22;25713;-35.352;149.036;2023-08-06T14:24:33;13.10;81.60
40023;DHT22;25713;-35.352;149.036;2023-08-06T14:27:05;13.00;81.30
40023;DHT22;25713;-35.352;149.036;2023-08-06T14:29:34;13.00;80.90
40023;DHT22;25713;-35.352;149.036;2023-08-06T14:32:04;13.00;81.20
40023;DHT22;25713;-35.352;149.036;2023-08-06T14:34:34;13.00;81.00
40023;DHT22;25713;-35.352;149.036;2023-08-06T14:37:03;13.00;81.20
40023;DHT22;25713;-35.352;149.036;2023-08-06T14:39:33;13.00;81.20
40023;DHT22;25713;-35.352;149.036;2023-08-06T14:42:02;13.00;80.80
40023;DHT22;25713;-35.352;149.036;2023-08-06T14:44:34;13.00;80.80
40023;DHT22;25713;-35.352;149.036;2023-08-06T14:47:03;13.00;80.80
40023;DHT22;25713;-35.352;149.036;2023-08-06T15:49:47;12.50;79.50
40023;DHT22;25713;-35.352;149.036;2023-08-06T15:52:17;12.40;80.00
40023;DHT22;25713;-35.352;149.036;2023-08-06T15:54:46;12.40;80.20
40023;DHT22;25713;-35.352;149.036;2023-08-06T15:57:16;12.40;80.40
40023;DHT22;25713;-35.352;149.036;2023-08-06T15:59:45;12.40;80.20
40023;DHT22;25713;-35.352;149.036;2023-08-06T16:02:15;12.40;80.10
40023;DHT22;25713;-35.352;149.036;2023-08-06T16:04:46;12.50;79.60
40023;DHT22;25713;-35.352;149.036;2023-08-06T16:07:16;12.40;78.60
40023;DHT22;25713;-35.352;149.036;2023-08-06T16:09:45;12.40;79.60